createdAt,value
2019-05-02T00:00:52.968Z,7.90
2019-05-02T00:03:21.531Z,7.90
2019-05-02T00:05:48.813Z,7.90
2019-05-02T00:08:15.974Z,7.80
2019-05-02T00:10:45.114Z,7.70
2019-05-02T00:13:12.255Z,7.60
2019-05-02T00:15:39.281Z,7.60
2019-05-02T00:18:06.818Z,7.50
2019-05-02T00:20:34.086Z,7.40
2019-05-02T00:23:01.158Z,7.40
2019-05-02T00:25:28.507Z,7.30
2019-05-02T00:27:55.788Z,7.30
2019-05-02T00:30:23.294Z,7.30
2019-05-02T00:32:53.269Z,7.20
2019-05-02T00:35:19.586Z,7.20
2019-05-02T00:37:46.641Z,7.10
2019-05-02T00:40:14.294Z,7.30
2019-05-02T00:42:41.558Z,7.30
2019-05-02T00:45:09.278Z,7.30
2019-05-02T00:47:47.780Z,7.30
2019-05-02T00:50:15.123Z,7.30
2019-05-02T00:52:42.090Z,7.30
2019-05-02T00:55:09.335Z,7.30
2019-05-02T00:57:36.838Z,7.30
2019-05-02T01:00:04.806Z,7.30
2019-05-02T01:02:42.678Z,7.30
2019-05-02T01:05:10.075Z,7.30
2019-05-02T01:07:37.715Z,7.20
2019-05-02T01:10:06.501Z,7.20
2019-05-02T01:12:33.642Z,7.20
2019-05-02T01:15:03.212Z,7.20
2019-05-02T01:17:32.300Z,7.20
2019-05-02T01:19:59.881Z,7.30
2019-05-02T01:22:27.243Z,7.20
2019-05-02T01:24:54.355Z,7.20
2019-05-02T01:27:27.940Z,7.20
2019-05-02T01:30:29.900Z,7.20
2019-05-02T01:33:06.437Z,7.10
2019-05-02T01:35:47.977Z,7.20
2019-05-02T01:38:40.901Z,7.20
2019-05-02T01:41:08.129Z,7.30
2019-05-02T01:43:35.410Z,7.20
2019-05-02T01:46:02.510Z,7.20
2019-05-02T01:48:29.526Z,7.20
2019-05-02T01:50:56.624Z,7.10
2019-05-02T01:53:23.609Z,7.10
2019-05-02T01:55:56.844Z,7.10
2019-05-02T01:58:20.711Z,7.10
2019-05-02T02:00:48.483Z,7.00
2019-05-02T02:03:15.511Z,7.00
2019-05-02T02:05:42.645Z,6.90
2019-05-02T02:08:09.630Z,6.90
2019-05-02T02:10:36.510Z,6.80
2019-05-02T02:13:05.199Z,6.90
2019-05-02T02:15:33.350Z,6.80
2019-05-02T02:18:00.234Z,6.90
2019-05-02T02:20:29.781Z,6.80
2019-05-02T02:23:04.664Z,6.90
2019-05-02T02:25:44.247Z,6.90
2019-05-02T02:28:11.244Z,6.80
2019-05-02T02:30:38.247Z,6.70
2019-05-02T02:33:07.525Z,6.70
2019-05-02T02:35:34.151Z,6.70
2019-05-02T02:38:01.158Z,6.70
2019-05-02T02:40:33.594Z,6.70
2019-05-02T02:42:58.189Z,6.90
2019-05-02T02:45:38.438Z,6.90
2019-05-02T02:48:05.510Z,6.90
2019-05-02T02:50:36.907Z,6.90
2019-05-02T02:53:01.752Z,6.90
2019-05-02T02:55:28.644Z,6.90
2019-05-02T02:57:58.507Z,6.90
2019-05-02T03:00:24.498Z,6.90
2019-05-02T03:02:51.449Z,6.80
2019-05-02T03:05:25.696Z,6.80
2019-05-02T03:07:47.486Z,6.90
2019-05-02T03:10:14.565Z,6.90
2019-05-02T03:13:03.963Z,6.90
2019-05-02T03:15:33.767Z,6.80
2019-05-02T03:18:02.080Z,6.70
2019-05-02T03:20:39.508Z,6.90
2019-05-02T03:22:58.208Z,6.80
2019-05-02T03:25:48.646Z,6.80
2019-05-02T03:27:54.346Z,6.70
2019-05-02T03:30:32.546Z,6.60
2019-05-02T03:33:03.005Z,6.60
2019-05-02T03:35:20.252Z,6.60
2019-05-02T03:37:51.288Z,6.70
2019-05-02T03:40:17.921Z,6.70
2019-05-02T03:42:47.731Z,6.60
2019-05-02T03:45:14.847Z,6.60
2019-05-02T03:47:43.971Z,6.60
2019-05-02T03:50:11.371Z,6.60
2019-05-02T03:52:43.648Z,6.70
2019-05-02T03:55:07.232Z,6.70
2019-05-02T03:57:36.195Z,6.80
2019-05-02T04:00:04.160Z,6.80
2019-05-02T04:02:31.446Z,6.90
2019-05-02T04:05:00.524Z,6.80
2019-05-02T04:07:27.883Z,6.90
2019-05-02T04:09:56.059Z,6.80
2019-05-02T04:12:23.876Z,6.80
2019-05-02T04:14:55.428Z,6.80
2019-05-02T04:17:22.170Z,6.80
2019-05-02T04:19:49.433Z,6.70
2019-05-02T04:22:16.784Z,6.60
2019-05-02T04:24:47.677Z,6.60
2019-05-02T04:27:13.224Z,6.70
2019-05-02T04:29:41.117Z,6.70
2019-05-02T04:32:11.801Z,6.80
2019-05-02T04:34:37.426Z,6.80
2019-05-02T04:37:04.984Z,6.90
2019-05-02T04:39:31.957Z,7.00
2019-05-02T04:42:05.351Z,7.00
2019-05-02T04:44:38.474Z,7.00
2019-05-02T04:47:02.590Z,7.00
2019-05-02T04:49:32.708Z,7.00
2019-05-02T04:52:04.455Z,7.00
2019-05-02T04:54:31.447Z,7.00
2019-05-02T04:56:55.631Z,7.10
2019-05-02T04:59:23.172Z,7.10
2019-05-02T05:01:57.244Z,7.20
2019-05-02T05:04:19.423Z,7.20
2019-05-02T05:06:55.643Z,7.30
2019-05-02T05:09:18.054Z,7.40
2019-05-02T05:11:45.184Z,7.50
2019-05-02T05:14:12.320Z,7.60
2019-05-02T05:16:45.210Z,7.70
2019-05-02T05:19:09.601Z,7.70
2019-05-02T05:21:37.393Z,7.80
2019-05-02T05:24:25.017Z,7.90
2019-05-02T05:26:55.320Z,7.90
2019-05-02T05:29:23.442Z,8.00
2019-05-02T05:31:55.099Z,8.10
2019-05-02T05:34:22.848Z,8.20
2019-05-02T05:36:48.772Z,8.10
2019-05-02T05:39:17.581Z,8.10
2019-05-02T05:41:48.326Z,8.20
2019-05-02T05:44:14.823Z,8.30
2019-05-02T05:46:42.709Z,8.40
2019-05-02T05:49:17.245Z,8.50
2019-05-02T05:51:38.950Z,8.60
2019-05-02T05:54:07.771Z,8.60
2019-05-02T05:56:39.669Z,8.70
2019-05-02T05:59:04.129Z,8.70
2019-05-02T06:01:34.809Z,8.70
2019-05-02T06:04:00.630Z,8.60
2019-05-02T06:06:28.230Z,8.70
2019-05-02T06:08:55.522Z,8.70
2019-05-02T06:11:23.255Z,8.80
2019-05-02T06:13:50.717Z,9.00
2019-05-02T06:16:17.996Z,9.20
2019-05-02T06:18:45.035Z,9.30
2019-05-02T06:21:12.252Z,9.30
2019-05-02T06:23:41.365Z,9.30
2019-05-02T06:26:13.257Z,9.50
2019-05-02T06:28:41.822Z,9.60
2019-05-02T06:31:07.292Z,9.60
2019-05-02T06:33:35.169Z,9.60
2019-05-02T06:36:02.546Z,9.80
2019-05-02T06:38:29.746Z,9.90
2019-05-02T06:40:56.610Z,10.00
2019-05-02T06:43:26.914Z,10.20
2019-05-02T06:45:53.834Z,10.30
2019-05-02T06:48:20.843Z,10.40
2019-05-02T06:50:47.950Z,10.50
2019-05-02T06:53:15.092Z,10.60
2019-05-02T06:55:43.294Z,10.70
2019-05-02T06:58:11.462Z,10.70
2019-05-02T07:00:55.641Z,10.80
2019-05-02T07:03:10.210Z,10.80
2019-05-02T07:05:36.611Z,10.90
2019-05-02T07:08:06.615Z,11.10
2019-05-02T07:10:44.131Z,11.10
2019-05-02T07:13:10.692Z,10.90
2019-05-02T07:16:00.242Z,11.10
2019-05-02T07:18:29.105Z,11.00
2019-05-02T07:20:56.615Z,10.90
2019-05-02T07:23:23.648Z,10.90
2019-05-02T07:25:50.890Z,11.10
2019-05-02T07:28:18.096Z,11.20
2019-05-02T07:30:45.086Z,11.10
2019-05-02T07:33:12.085Z,10.90
2019-05-02T07:35:39.180Z,10.90
2019-05-02T07:38:06.414Z,11.20
2019-05-02T07:40:33.579Z,11.50
2019-05-02T07:43:00.803Z,11.60
2019-05-02T07:45:28.032Z,11.60
2019-05-02T07:47:55.040Z,11.70
2019-05-02T07:50:22.009Z,12.00
2019-05-02T07:52:48.885Z,11.90
2019-05-02T07:55:15.778Z,12.10
2019-05-02T07:57:42.665Z,12.00
2019-05-02T08:00:10.933Z,11.90
2019-05-02T08:02:38.901Z,11.80
2019-05-02T08:05:08.682Z,12.00
2019-05-02T08:07:34.830Z,12.30
2019-05-02T08:10:01.942Z,12.30
2019-05-02T08:12:29.333Z,12.60
2019-05-02T08:14:56.326Z,12.90
2019-05-02T08:17:23.293Z,13.30
2019-05-02T08:19:50.279Z,13.40
2019-05-02T08:22:17.360Z,13.40
2019-05-02T08:24:44.225Z,13.20
2019-05-02T08:27:36.698Z,12.80
2019-05-02T08:30:05.837Z,12.90
2019-05-02T08:32:33.069Z,13.00
2019-05-02T08:34:59.925Z,13.30
2019-05-02T08:37:26.814Z,13.40
2019-05-02T08:39:53.681Z,13.90
2019-05-02T08:42:20.752Z,14.30
2019-05-02T08:44:51.402Z,14.40
2019-05-02T08:47:18.961Z,14.00
2019-05-02T08:49:49.365Z,13.80
2019-05-02T08:52:14.313Z,13.70
2019-05-02T08:54:41.202Z,14.20
2019-05-02T08:57:08.149Z,14.60
2019-05-02T08:59:35.047Z,14.70
2019-05-02T09:02:02.017Z,14.90
2019-05-02T09:04:30.402Z,14.80
2019-05-02T09:07:00.538Z,15.10
2019-05-02T09:09:27.971Z,15.20
2019-05-02T09:12:08.699Z,15.10
2019-05-02T09:14:24.280Z,15.20
2019-05-02T09:16:52.379Z,14.90
2019-05-02T09:19:21.489Z,14.90
2019-05-02T09:21:48.709Z,15.30
2019-05-02T09:24:20.925Z,15.50
2019-05-02T09:26:44.763Z,15.90
2019-05-02T09:29:12.573Z,15.90
2019-05-02T09:31:42.252Z,15.80
2019-05-02T09:34:08.498Z,16.10
2019-05-02T09:36:38.110Z,15.90
2019-05-02T09:39:05.885Z,16.20
2019-05-02T09:41:36.249Z,16.10
2019-05-02T09:44:03.819Z,16.10
2019-05-02T09:46:32.491Z,16.10
2019-05-02T09:49:02.886Z,15.90
2019-05-02T09:51:28.398Z,16.00
2019-05-02T09:53:57.093Z,16.40
2019-05-02T09:56:24.188Z,16.60
2019-05-02T09:58:55.066Z,16.90
2019-05-02T10:01:28.581Z,17.70
2019-05-02T10:03:55.461Z,17.30
2019-05-02T10:06:22.977Z,17.40
2019-05-02T10:08:52.069Z,17.60
2019-05-02T10:11:22.510Z,17.40
2019-05-02T10:13:48.165Z,17.60
2019-05-02T10:16:18.031Z,17.40
2019-05-02T10:18:44.905Z,17.50
2019-05-02T10:21:13.474Z,17.70
2019-05-02T10:23:42.708Z,18.20
2019-05-02T10:26:14.662Z,18.50
2019-05-02T10:28:41.792Z,18.70
2019-05-02T10:31:07.985Z,18.30
2019-05-02T10:33:37.558Z,18.60
2019-05-02T10:36:03.993Z,19.30
2019-05-02T10:38:32.576Z,19.90
2019-05-02T10:41:02.655Z,20.10
2019-05-02T10:43:28.537Z,20.50
2019-05-02T10:46:01.832Z,19.70
2019-05-02T10:48:29.262Z,19.50
2019-05-02T10:51:15.876Z,20.00
2019-05-02T10:53:47.215Z,21.20
2019-05-02T10:56:11.813Z,22.40
2019-05-02T10:58:39.158Z,23.60
2019-05-02T11:01:07.365Z,23.10
2019-05-02T11:03:43.783Z,22.50
2019-05-02T11:06:08.349Z,21.90
2019-05-02T11:08:36.610Z,20.80
2019-05-02T11:11:06.191Z,21.30
2019-05-02T11:13:42.588Z,21.10
2019-05-02T11:16:42.286Z,21.10
2019-05-02T11:19:13.102Z,21.50
2019-05-02T11:21:53.512Z,21.00
2019-05-02T11:24:11.592Z,20.70
2019-05-02T11:26:38.158Z,20.90
2019-05-02T11:29:05.321Z,22.00
2019-05-02T11:31:32.592Z,23.10
2019-05-02T11:34:01.639Z,24.80
2019-05-02T11:36:28.865Z,25.70
2019-05-02T11:39:05.642Z,25.60
2019-05-02T11:41:25.209Z,25.20
2019-05-02T11:43:55.505Z,24.80
2019-05-02T11:46:22.136Z,25.60
2019-05-02T11:48:56.319Z,24.80
2019-05-02T11:51:18.199Z,24.30
2019-05-02T11:53:45.073Z,23.80
2019-05-02T11:56:13.485Z,23.30
2019-05-02T11:58:47.852Z,22.80
2019-05-02T12:01:09.410Z,22.30
2019-05-02T12:03:45.450Z,21.70
2019-05-02T12:06:18.974Z,21.50
2019-05-02T12:08:47.663Z,21.90
2019-05-02T12:11:15.984Z,22.50
2019-05-02T12:13:42.799Z,22.90
2019-05-02T12:16:12.554Z,22.80
2019-05-02T12:18:39.510Z,22.60
2019-05-02T12:21:06.593Z,21.70
2019-05-02T12:23:36.126Z,22.30
2019-05-02T12:26:03.370Z,23.80
2019-05-02T12:28:32.268Z,23.80
2019-05-02T12:30:59.165Z,23.70
2019-05-02T12:33:29.238Z,24.30
2019-05-02T12:35:56.117Z,24.00
2019-05-02T12:38:23.246Z,24.20
2019-05-02T12:40:52.068Z,25.00
2019-05-02T12:43:19.403Z,25.40
2019-05-02T12:45:46.287Z,25.80
2019-05-02T12:48:13.198Z,25.80
2019-05-02T12:50:41.767Z,26.50
2019-05-02T12:53:08.826Z,26.20
2019-05-02T12:55:35.710Z,26.00
2019-05-02T12:58:03.213Z,25.60
2019-05-02T13:00:31.985Z,25.70
2019-05-02T13:03:07.037Z,24.00
2019-05-02T13:05:33.901Z,22.60
2019-05-02T13:08:02.513Z,21.50
2019-05-02T13:10:42.271Z,20.90
2019-05-02T13:13:09.768Z,20.40
2019-05-02T13:15:37.054Z,20.30
2019-05-02T13:18:04.645Z,20.20
2019-05-02T13:20:34.780Z,19.90
2019-05-02T13:23:27.374Z,19.20
2019-05-02T13:25:52.677Z,19.10
2019-05-02T13:28:24.115Z,18.90
2019-05-02T13:31:05.883Z,18.50
2019-05-02T13:33:39.574Z,18.20
2019-05-02T13:36:08.461Z,17.80
2019-05-02T13:38:35.339Z,17.50
2019-05-02T13:41:02.668Z,17.20
2019-05-02T13:43:35.383Z,16.90
2019-05-02T13:46:16.045Z,16.50
2019-05-02T13:48:43.458Z,16.20
2019-05-02T13:51:11.869Z,15.80
2019-05-02T13:53:53.229Z,15.40
2019-05-02T13:56:42.698Z,15.10
2019-05-02T13:59:10.505Z,14.90
2019-05-02T14:01:38.044Z,14.60
2019-05-02T14:04:10.063Z,14.40
2019-05-02T14:06:37.929Z,14.20
2019-05-02T14:09:20.142Z,14.00
2019-05-02T14:12:01.827Z,14.00
2019-05-02T14:14:29.006Z,13.90
2019-05-02T14:16:56.117Z,13.90
2019-05-02T14:19:23.346Z,13.90
2019-05-02T14:21:51.877Z,13.90
2019-05-02T14:24:22.928Z,14.00
2019-05-02T14:26:52.381Z,14.00
2019-05-02T14:29:19.497Z,14.20
2019-05-02T14:31:46.657Z,14.20
2019-05-02T14:34:38.614Z,14.30
2019-05-02T14:37:06.021Z,14.40
2019-05-02T14:39:32.948Z,14.60
2019-05-02T14:42:01.960Z,14.60
2019-05-02T14:44:58.367Z,14.70
2019-05-02T14:46:58.906Z,14.80
2019-05-02T14:49:25.922Z,14.90
2019-05-02T14:51:52.800Z,15.00
2019-05-02T14:54:19.801Z,15.40
2019-05-02T14:57:01.959Z,15.80
2019-05-02T14:59:29.620Z,16.30
2019-05-02T15:02:03.744Z,16.80
2019-05-02T15:04:27.978Z,16.70
2019-05-02T15:06:54.870Z,16.80
2019-05-02T15:09:26.606Z,16.60
2019-05-02T15:12:02.422Z,16.50
2019-05-02T15:14:33.072Z,16.40
2019-05-02T15:17:02.311Z,16.40
2019-05-02T15:19:29.578Z,16.40
2019-05-02T15:21:56.670Z,16.50
2019-05-02T15:24:27.804Z,16.30
2019-05-02T15:26:52.847Z,16.30
2019-05-02T15:29:24.395Z,16.10
2019-05-02T15:32:03.260Z,15.60
2019-05-02T15:34:52.397Z,15.50
2019-05-02T15:37:24.121Z,15.30
2019-05-02T15:42:22.884Z,14.40
2019-05-02T15:44:48.358Z,13.70
2019-05-02T15:47:15.536Z,13.30
2019-05-02T15:49:45.379Z,13.10
2019-05-02T15:52:18.950Z,13.00
2019-05-02T15:54:43.802Z,12.90
2019-05-02T15:57:12.615Z,12.80
2019-05-02T15:59:43.206Z,12.80
2019-05-02T16:02:17.511Z,12.80
2019-05-02T16:04:42.595Z,12.80
2019-05-02T16:07:09.661Z,12.70
2019-05-02T16:09:36.569Z,12.80
2019-05-02T16:12:03.722Z,12.70
2019-05-02T16:14:34.100Z,12.70
2019-05-02T16:17:01.280Z,12.70
2019-05-02T16:19:30.440Z,12.80
2019-05-02T16:22:08.144Z,12.80
2019-05-02T16:24:35.213Z,12.80
2019-05-02T16:27:02.212Z,12.70
2019-05-02T16:29:29.295Z,12.70
2019-05-02T16:32:06.769Z,12.70
2019-05-02T16:34:48.339Z,12.70
2019-05-02T16:37:16.827Z,12.60
2019-05-02T16:39:49.705Z,12.60
2019-05-02T16:42:12.764Z,12.60
2019-05-02T16:44:40.545Z,12.60
2019-05-02T16:47:07.491Z,12.50
2019-05-02T16:49:34.667Z,12.60
2019-05-02T16:52:04.899Z,12.60
2019-05-02T16:54:36.195Z,12.70
2019-05-02T16:57:01.659Z,12.60
2019-05-02T16:59:28.830Z,12.60
2019-05-02T17:01:59.578Z,12.60
2019-05-02T17:04:24.578Z,12.60
2019-05-02T17:06:56.747Z,12.50
2019-05-02T17:09:51.966Z,12.50
2019-05-02T17:12:18.913Z,12.60
2019-05-02T17:15:07.687Z,12.60
2019-05-02T17:17:34.975Z,12.60
2019-05-02T17:20:07.019Z,12.60
2019-05-02T17:22:32.328Z,12.60
2019-05-02T17:25:02.449Z,12.60
2019-05-02T17:27:28.218Z,12.60
2019-05-02T17:29:59.232Z,12.50
2019-05-02T17:32:23.882Z,12.60
2019-05-02T17:34:52.329Z,12.50
2019-05-02T17:37:21.381Z,12.50
2019-05-02T17:39:48.369Z,12.50
2019-05-02T17:42:17.089Z,12.50
2019-05-02T17:44:44.068Z,12.50
2019-05-02T17:47:11.021Z,12.50
2019-05-02T17:49:37.982Z,12.50
2019-05-02T17:52:26.026Z,12.40
2019-05-02T17:54:48.705Z,12.40
2019-05-02T17:57:15.724Z,12.30
2019-05-02T17:59:42.954Z,12.40
2019-05-02T18:02:12.295Z,12.30
2019-05-02T18:04:39.083Z,12.20
2019-05-02T18:07:06.082Z,12.30
2019-05-02T18:09:35.018Z,12.30
2019-05-02T18:12:01.874Z,12.20
2019-05-02T18:14:28.929Z,12.30
2019-05-02T18:16:55.830Z,12.30
2019-05-02T18:19:24.605Z,12.30
2019-05-02T18:21:52.835Z,12.30
2019-05-02T18:24:19.740Z,12.30
2019-05-02T18:26:46.613Z,12.20
2019-05-02T18:29:15.478Z,12.30
2019-05-02T18:31:47.351Z,12.10
2019-05-02T18:34:14.325Z,12.10
2019-05-02T18:36:41.706Z,12.20
2019-05-02T18:39:08.935Z,12.20
2019-05-02T18:41:42.035Z,12.20
2019-05-02T18:44:06.534Z,12.20
2019-05-02T18:46:36.791Z,12.20
2019-05-02T18:49:02.780Z,12.20
2019-05-02T18:51:32.017Z,12.20
2019-05-02T18:54:04.217Z,12.20
2019-05-02T18:56:34.288Z,12.10
2019-05-02T18:58:58.630Z,12.10
2019-05-02T19:01:25.762Z,12.00
2019-05-02T19:03:56.191Z,12.00
2019-05-02T19:06:22.124Z,12.00
2019-05-02T19:08:52.255Z,12.00
2019-05-02T19:11:19.578Z,12.00
2019-05-02T19:13:46.678Z,12.00
2019-05-02T19:16:13.919Z,11.90
2019-05-02T19:18:42.503Z,11.90
2019-05-02T19:21:12.329Z,11.90
2019-05-02T19:23:39.302Z,11.90
2019-05-02T19:26:09.824Z,11.90
2019-05-02T19:28:53.887Z,11.90
2019-05-02T19:31:22.848Z,11.80
2019-05-02T19:33:49.956Z,11.80
2019-05-02T19:36:24.207Z,11.70
2019-05-02T19:38:46.637Z,11.60
2019-05-02T19:41:13.787Z,11.60
2019-05-02T19:43:49.543Z,11.60
2019-05-02T19:46:12.123Z,11.50
2019-05-02T19:48:41.067Z,11.40
2019-05-02T19:51:12.704Z,11.40
2019-05-02T19:53:38.805Z,11.30
2019-05-02T19:56:06.764Z,11.20
2019-05-02T19:58:36.623Z,11.10
2019-05-02T20:01:04.404Z,11.00
2019-05-02T20:03:32.315Z,10.90
2019-05-02T20:06:02.555Z,10.80
2019-05-02T20:08:29.090Z,10.80
2019-05-02T20:10:58.292Z,10.70
2019-05-02T20:13:28.036Z,10.70
2019-05-02T20:16:05.768Z,10.60
2019-05-02T20:18:34.975Z,10.60
2019-05-02T20:21:23.507Z,10.60
2019-05-02T20:23:44.164Z,10.50
2019-05-02T20:26:15.402Z,10.30
2019-05-02T20:28:42.261Z,10.20
2019-05-02T20:31:09.797Z,10.10
2019-05-02T20:33:37.107Z,10.00
2019-05-02T20:36:04.412Z,9.90
2019-05-02T20:38:32.464Z,9.80
2019-05-02T20:40:59.850Z,9.70
2019-05-02T20:43:26.934Z,9.70
2019-05-02T20:45:54.200Z,9.60
2019-05-02T20:48:22.709Z,9.60
2019-05-02T20:50:51.959Z,9.50
2019-05-02T20:53:28.811Z,9.40
2019-05-02T20:55:48.531Z,9.40
2019-05-02T20:58:15.734Z,9.30
2019-05-02T21:00:42.958Z,9.20
2019-05-02T21:03:11.817Z,9.20
2019-05-02T21:05:46.241Z,9.20
2019-05-02T21:08:34.394Z,9.10
2019-05-02T21:11:01.851Z,9.10
2019-05-02T21:13:29.263Z,9.10
2019-05-02T21:15:56.505Z,9.00
2019-05-02T21:18:23.710Z,8.90
2019-05-02T21:20:52.568Z,8.90
2019-05-02T21:23:21.878Z,8.70
2019-05-02T21:25:49.163Z,8.70
2019-05-02T21:28:16.494Z,8.80
2019-05-02T21:30:43.755Z,8.70
2019-05-02T21:33:31.988Z,8.60
2019-05-02T21:35:59.439Z,8.60
2019-05-02T21:38:26.547Z,8.50
2019-05-02T21:40:53.711Z,8.50
2019-05-02T21:43:22.138Z,8.50
2019-05-02T21:45:51.643Z,8.50
2019-05-02T21:48:19.127Z,8.60
2019-05-02T21:50:51.764Z,8.70
2019-05-02T21:53:35.449Z,8.70
2019-05-02T21:56:17.517Z,8.60
2019-05-02T21:59:03.146Z,8.70
2019-05-02T22:01:32.917Z,8.70
2019-05-02T22:04:02.137Z,8.80
2019-05-02T22:06:29.454Z,8.80
2019-05-02T22:08:56.639Z,8.90
2019-05-02T22:11:23.897Z,9.00
2019-05-02T22:13:51.662Z,9.10
2019-05-02T22:16:18.819Z,9.10
2019-05-02T22:18:45.957Z,9.10
2019-05-02T22:21:13.041Z,9.10
2019-05-02T22:23:42.358Z,9.10
2019-05-02T22:26:09.128Z,9.10
2019-05-02T22:28:36.100Z,9.20
2019-05-02T22:31:03.373Z,9.20
2019-05-02T22:33:30.522Z,9.20
2019-05-02T22:35:59.414Z,9.30
2019-05-02T22:38:40.056Z,9.30
2019-05-02T22:41:07.006Z,9.20
2019-05-02T22:43:34.285Z,9.20
2019-05-02T22:46:04.781Z,9.30
2019-05-02T22:48:31.908Z,9.30
2019-05-02T22:50:59.009Z,9.30
2019-05-02T22:53:25.978Z,9.40
2019-05-02T22:55:52.881Z,9.40
2019-05-02T22:58:19.764Z,9.40
2019-05-02T23:00:46.799Z,9.40
2019-05-02T23:03:13.686Z,9.50
2019-05-02T23:05:42.146Z,9.50
2019-05-02T23:08:09.302Z,9.50
2019-05-02T23:10:36.210Z,9.60
2019-05-02T23:13:03.318Z,9.60
2019-05-02T23:15:31.989Z,9.60
2019-05-02T23:17:59.057Z,9.60
2019-05-02T23:20:26.038Z,9.60
2019-05-02T23:22:52.926Z,9.60
2019-05-02T23:25:28.557Z,9.60
2019-05-02T23:27:59.866Z,9.60
2019-05-02T23:30:26.857Z,9.70
2019-05-02T23:32:53.715Z,9.70
2019-05-02T23:35:20.682Z,9.70
2019-05-02T23:37:48.666Z,9.70
2019-05-02T23:40:15.878Z,9.70
2019-05-02T23:42:42.906Z,9.70
2019-05-02T23:45:11.966Z,9.70
2019-05-02T23:47:39.013Z,9.60
2019-05-02T23:50:06.253Z,9.60
2019-05-02T23:52:33.118Z,9.70
2019-05-02T23:55:00.132Z,9.60
2019-05-02T23:57:27.147Z,9.70
2019-05-02T23:59:54.023Z,9.60
